Bolivar, OH (44612)

1:45 PM EST on December 10, 2016 (GMT -0500)
| | Change Station

Elev -9999 ft 0.00 °N, 0.00 °E | Updated 2 seconds ago

Overcast
Overcast
70 °F
Feels Like 70 °F
N
5
Wind Variable Wind from South
Gusts mph

Today
High -- | Low -- °F
--% Chance of Precip.
Yesterday
High -- | Low -- °F
Precip. -- in
Pressure 30.52 in
Visibility 10.0 miles
Clouds Overcast 4000 ft
Dew Point 65 °F
Humidity 85%
Rainfall --
Snow Depth Not available.
7:39 AM 4:58 PM
Waxing Gibbous, 85% visible
METAR KPHD 101753Z AUTO 25007KT 10SM OVC040 M03/M09 A3048 RMK AO2 SLP335 T10331089 11033 21050 58013 $
Pressure 30.52 in
Visibility 10.0 miles
Clouds Overcast 4000 ft
Dew Point 65 °F
Humidity 85%
Rainfall --
Snow Depth Not available.
7:39 AM 4:58 PM
Waxing Gibbous, 85% visible
METAR KPHD 101753Z AUTO 25007KT 10SM OVC040 M03/M09 A3048 RMK AO2 SLP335 T10331089 11033 21050 58013 $

10-Day Weather Forecast

Almanac

Astronomy

Dec. 10, 2016 Rise Set
Actual Time
Civil Twilight
Nautical Twilight
Astronomical Twilight
Moon
Length of Visible Light
Length of Day
Tomorrow will be .
, % of the Moon is Illuminated

Today's Extremes

State Highs State Lows

Community

WunderPhotos

Upload Photos

1,956,620 photos uploaded!

WunderBlog® & News

Nearby

Air Quality

  Air Quality AQ Index Pollutant
Not available.

Snow Depth

Station Depth Elevation

Earthquake Activity

City Distance Mag. Time & Date
Minimum magnitude displayed is 2.5.

Coastal Water Temperatures

Place Temperature

Stations

Nearby Weather Stations

Station Location Temp. Windchill Dew Point Humidity Wind Precip. Elev Updated Type
                   

Watches & Warnings

There are currently no watches in effect.